Time;durP1;ratioP1;P1;durP2;ratioP2;P2;SDS_P1;SDS_P2;PMS_P1;PMS_P2;Temp;Humidity;BMP_temperature;BMP_pressure;BME280_temperature;BME280_humidity;BME280_pressure;Samples;Min_cycle;Max_cycle;Signal;HPM_P1;HPM_P2
2023/01/29 00:02:07;;;;;;;39.38;22.37;;;16.10;74.40;;;;;;1891885;75;21470;-86
2023/01/29 00:04:38;;;;;;;39.85;21.60;;;16.10;74.30;;;;;;1879092;75;21175;-88
2023/01/29 00:07:09;;;;;;;38.58;22.90;;;16.10;74.20;;;;;;1888246;75;21636;-86
2023/01/29 00:09:40;;;;;;;41.70;22.60;;;16.10;73.80;;;;;;1891158;75;21111;-85
2023/01/29 00:12:11;;;;;;;32.05;19.48;;;16.10;73.70;;;;;;1881695;75;21136;-85
2023/01/29 00:14:41;;;;;;;36.33;19.55;;;16.10;73.40;;;;;;1878603;75;21074;-85
2023/01/29 00:17:12;;;;;;;33.65;20.35;;;16.00;73.40;;;;;;1851229;77;21946;-87
2023/01/29 00:19:43;;;;;;;35.00;20.95;;;16.10;73.50;;;;;;1887211;75;21074;-85
2023/01/29 00:22:14;;;;;;;32.88;20.68;;;16.00;73.20;;;;;;1856873;77;21048;-85
2023/01/29 00:24:44;;;;;;;32.83;20.08;;;16.00;73.30;;;;;;1821795;78;22422;-85
2023/01/29 00:27:15;;;;;;;36.45;21.50;;;16.00;73.30;;;;;;1888192;75;21144;-87
2023/01/29 00:30:07;;;;;;;36.25;21.07;;;16.00;73.30;;;;;;1890196;75;21171;-85
2023/01/29 00:32:18;;;;;;;32.23;19.32;;;16.10;73.20;;;;;;1886199;75;21249;-84
2023/01/29 00:34:49;;;;;;;38.67;21.35;;;16.10;72.90;;;;;;1886821;75;21146;-87
2023/01/29 00:37:20;;;;;;;45.48;21.55;;;16.10;72.70;;;;;;1886282;74;21092;-86
2023/01/29 00:39:50;;;;;;;36.48;21.77;;;16.10;72.40;;;;;;1883076;75;21115;-87
2023/01/29 00:45:11;;;;;;;41.53;21.87;;;16.10;71.90;;;;;;1921576;74;21135;-87
2023/01/29 00:47:41;;;;;;;35.75;21.62;;;16.20;71.70;;;;;;1908101;74;21084;-85
2023/01/29 00:50:13;;;;;;;36.45;20.50;;;16.20;71.30;;;;;;1908200;74;21151;-86
2023/01/29 00:52:50;;;;;;;;;;;16.20;71.00;;;;;;1907914;74;21777;-86
2023/01/29 00:55:22;;;;;;;36.00;20.62;;;16.30;70.80;;;;;;1916744;74;20512;-87
2023/01/29 00:57:53;;;;;;;44.15;21.62;;;16.30;70.80;;;;;;1895280;74;21141;-86
2023/01/29 01:00:24;;;;;;;39.53;22.27;;;16.40;70.40;;;;;;1901406;74;21280;-88
2023/01/29 01:03:07;;;;;;;38.30;20.02;;;16.40;69.80;;;;;;1912580;74;21249;-86
2023/01/29 01:05:38;;;;;;;41.02;21.68;;;16.40;69.50;;;;;;1915059;74;21333;-86
2023/01/29 01:11:07;;;;;;;36.03;20.37;;;16.40;69.40;;;;;;1912203;74;21144;-85
2023/01/29 01:13:38;;;;;;;38.70;20.95;;;16.40;69.00;;;;;;1897897;74;21421;-86
2023/01/29 01:16:17;;;;;;;42.60;20.12;;;16.40;69.00;;;;;;1910533;74;21174;-87
2023/01/29 01:18:49;;;;;;;35.90;21.33;;;16.50;68.50;;;;;;1897741;74;21183;-88
2023/01/29 01:21:22;;;;;;;42.53;22.27;;;16.50;68.60;;;;;;1906085;74;21131;-88
2023/01/29 01:23:53;;;;;;;34.08;18.57;;;16.50;68.60;;;;;;1903270;74;21322;-83
2023/01/29 01:26:24;;;;;;;40.38;19.62;;;16.60;68.00;;;;;;1912350;74;21094;-87
2023/01/29 01:28:58;;;;;;;32.48;18.50;;;16.60;68.10;;;;;;1905287;74;21185;-85
2023/01/29 01:31:30;;;;;;;34.70;18.50;;;16.60;67.10;;;;;;1917703;74;21054;-83
2023/01/29 01:34:06;;;;;;;29.20;18.02;;;16.60;66.40;;;;;;1917674;74;21127;-86
2023/01/29 01:36:36;;;;;;;35.58;18.82;;;16.60;66.50;;;;;;1901286;74;21107;-86
2023/01/29 01:39:11;;;;;;;32.93;18.70;;;16.60;66.50;;;;;;1914258;74;21226;-86
2023/01/29 01:41:42;;;;;;;35.80;18.05;;;16.70;66.30;;;;;;1908401;74;21132;-86
2023/01/29 01:44:48;;;;;;;37.65;19.12;;;16.70;65.70;;;;;;1890626;75;21220;-88
2023/01/29 01:47:25;;;;;;;37.65;18.25;;;16.80;65.80;;;;;;1887732;72;21087;-84
2023/01/29 01:50:00;;;;;;;30.57;17.65;;;16.80;65.30;;;;;;1877911;74;21206;-85
2023/01/29 01:52:33;;;;;;;35.88;19.07;;;16.90;65.20;;;;;;1889625;73;21089;-83
2023/01/29 01:55:05;;;;;;;35.40;20.30;;;17.00;64.70;;;;;;1896643;72;21369;-85
2023/01/29 01:57:36;;;;;;;35.35;18.27;;;17.00;64.30;;;;;;1883028;75;21113;-89
2023/01/29 02:00:09;;;;;;;36.15;17.85;;;17.00;64.20;;;;;;1891216;75;21112;-86
2023/01/29 02:11:33;;;;;;;34.92;19.02;;;17.20;63.90;;;;;;1887069;75;21128;-86
2023/01/29 02:14:04;;;;;;;37.35;19.37;;;17.30;63.90;;;;;;1885169;75;21140;-83
2023/01/29 02:16:37;;;;;;;40.00;19.07;;;17.30;64.80;;;;;;1886515;75;21684;-86
2023/01/29 02:20:17;;;;;;;42.90;19.45;;;17.40;62.30;;;;;;1872875;75;21734;-88
2023/01/29 02:23:13;;;;;;;34.00;18.40;;;17.50;61.70;;;;;;1887299;75;21066;-88
2023/01/29 02:25:52;;;;;;;32.28;17.65;;;17.60;61.40;;;;;;1884745;75;21154;-88
2023/01/29 02:28:25;;;;;;;32.10;17.82;;;17.70;61.70;;;;;;1892008;75;21160;-87
2023/01/29 02:31:25;;;;;;;33.40;17.07;;;17.80;60.40;;;;;;1873948;75;21601;-86
2023/01/29 02:34:03;;;;;;;25.17;16.05;;;17.90;59.90;;;;;;1901907;75;21153;-88
2023/01/29 02:36:48;;;;;;;32.17;17.15;;;17.90;59.60;;;;;;1887669;75;21522;-90
2023/01/29 02:39:21;;;;;;;32.50;15.90;;;18.00;59.10;;;;;;1885584;75;21140;-88
2023/01/29 02:42:16;;;;;;;31.00;16.02;;;18.00;58.20;;;;;;1881498;75;21174;-86
2023/01/29 02:45:02;;;;;;;32.78;15.78;;;18.10;58.60;;;;;;1889969;74;21144;-90
2023/01/29 02:47:38;;;;;;;27.62;15.35;;;18.20;58.70;;;;;;1884530;75;21828;-88
2023/01/29 02:50:15;;;;;;;28.70;15.08;;;18.20;57.90;;;;;;1895733;75;21140;-85
2023/01/29 02:52:53;;;;;;;26.93;15.55;;;18.30;57.30;;;;;;1843285;77;21139;-88
2023/01/29 02:55:40;;;;;;;;;;;18.30;57.70;;;;;;1888036;75;21127;-87
2023/01/29 02:58:19;;;;;;;29.00;15.23;;;18.50;58.00;;;;;;1893595;75;20203;-86
2023/01/29 03:00:53;;;;;;;26.17;15.05;;;18.50;57.80;;;;;;1895551;75;21183;-90
2023/01/29 03:03:41;;;;;;;35.10;15.23;;;18.60;57.30;;;;;;1890061;75;21156;-89
2023/01/29 03:06:19;;;;;;;29.92;14.95;;;18.70;56.90;;;;;;1833420;74;21081;-90
2023/01/29 03:08:58;;;;;;;28.65;15.70;;;18.80;56.20;;;;;;1882893;75;21634;-88
2023/01/29 03:11:31;;;;;;;29.07;13.53;;;18.90;55.50;;;;;;1848278;77;21072;-87
2023/01/29 03:14:13;;;;;;;31.77;15.35;;;18.90;55.50;;;;;;1882292;75;21140;-87
2023/01/29 03:16:58;;;;;;;30.40;16.03;;;19.00;55.20;;;;;;1901821;75;21119;-89
2023/01/29 03:19:40;;;;;;;28.50;16.40;;;19.10;55.70;;;;;;1895446;75;21183;-88
2023/01/29 03:22:15;;;;;;;34.08;15.78;;;19.20;55.70;;;;;;1887281;75;21140;-88
2023/01/29 03:33:26;;;;;;;26.25;15.43;;;19.60;54.20;;;;;;1892424;75;21447;-86
2023/01/29 03:36:08;;;;;;;23.55;13.90;;;19.70;53.40;;;;;;1897870;75;21160;-88
2023/01/29 03:38:39;;;;;;;31.75;15.90;;;19.80;53.00;;;;;;1892664;75;21580;-88
2023/01/29 03:41:15;;;;;;;24.72;14.53;;;20.00;53.00;;;;;;1883439;75;21077;-88
2023/01/29 03:43:51;;;;;;;27.22;14.40;;;20.10;53.20;;;;;;1889513;74;21250;-86
2023/01/29 03:46:34;;;;;;;24.43;13.83;;;20.20;52.30;;;;;;1892436;74;21666;-89
2023/01/29 03:49:11;;;;;;;25.97;14.40;;;20.40;52.30;;;;;;1883955;75;21065;-88
2023/01/29 03:51:53;;;;;;;27.93;15.03;;;20.50;51.80;;;;;;1889222;74;21065;-91
2023/01/29 03:54:38;;;;;;;25.00;14.18;;;20.60;51.40;;;;;;1888624;75;21182;-91
2023/01/29 03:57:17;;;;;;;22.30;14.05;;;20.70;51.20;;;;;;1886105;75;21097;-90
2023/01/29 04:00:15;;;;;;;26.12;13.50;;;20.80;50.90;;;;;;1885861;75;21121;-88
2023/01/29 04:03:15;;;;;;;26.87;13.62;;;20.90;50.80;;;;;;1883208;75;21186;-90
2023/01/29 04:06:08;;;;;;;28.17;14.60;;;21.00;50.70;;;;;;1880168;75;21141;-90
2023/01/29 04:08:34;;;;;;;28.00;13.85;;;21.10;50.10;;;;;;1885567;74;22148;-83
2023/01/29 04:11:07;;;;;;;25.60;14.23;;;21.20;50.10;;;;;;1888720;75;21121;-88
2023/01/29 04:13:40;;;;;;;30.48;13.95;;;21.30;49.90;;;;;;1887603;75;21128;-89
2023/01/29 04:16:13;;;;;;;24.07;13.90;;;21.40;49.50;;;;;;1878797;75;21157;-90
2023/01/29 04:18:46;;;;;;;28.70;13.60;;;21.40;49.60;;;;;;1887331;75;21054;-88
2023/01/29 04:21:18;;;;;;;25.37;14.43;;;21.60;49.40;;;;;;1889217;75;21178;-90
2023/01/29 04:23:49;;;;;;;25.32;13.43;;;21.70;49.90;;;;;;1903549;75;21089;-90
2023/01/29 04:26:29;;;;;;;29.80;13.53;;;21.80;48.50;;;;;;1894526;75;21304;-88
2023/01/29 04:29:11;;;;;;;31.82;14.23;;;21.90;48.80;;;;;;1891593;75;21116;-88
2023/01/29 04:31:47;;;;;;;30.92;13.43;;;22.00;48.30;;;;;;1889247;74;21116;-85
2023/01/29 04:34:50;;;;;;;33.60;14.30;;;22.10;48.30;;;;;;1827081;78;21107;-89
2023/01/29 04:37:38;;;;;;;26.23;13.70;;;22.20;47.80;;;;;;1878229;75;21073;-88
2023/01/29 04:40:31;;;;;;;27.42;12.70;;;22.30;47.40;;;;;;1894810;75;21192;-89
2023/01/29 04:43:25;;;;;;;24.63;13.22;;;22.30;47.30;;;;;;1876136;75;21162;-85
2023/01/29 04:46:22;;;;;;;27.50;13.53;;;22.40;46.80;;;;;;1878217;75;21176;-87
2023/01/29 04:49:07;;;;;;;26.57;13.75;;;22.50;47.10;;;;;;1891467;75;21242;-82
2023/01/29 04:51:49;;;;;;;25.05;12.28;;;22.60;47.10;;;;;;1880276;75;21191;-86
2023/01/29 04:54:25;;;;;;;27.05;13.38;;;22.70;47.20;;;;;;1894552;74;21057;-87
2023/01/29 04:56:59;;;;;;;25.40;12.90;;;22.80;47.30;;;;;;1851233;77;21123;-85
2023/01/29 04:59:35;;;;;;;23.42;12.85;;;22.90;46.90;;;;;;1883594;75;21069;-88
2023/01/29 05:02:07;;;;;;;24.37;13.23;;;23.00;46.80;;;;;;1889696;75;21062;-89
2023/01/29 05:04:41;;;;;;;26.37;12.80;;;23.10;46.80;;;;;;1880167;75;21128;-89
2023/01/29 05:07:15;;;;;;;21.45;12.18;;;23.20;46.40;;;;;;1894310;75;21648;-88
2023/01/29 05:09:47;;;;;;;24.12;13.08;;;23.30;46.20;;;;;;1886226;74;21097;-86
2023/01/29 05:12:18;;;;;;;27.50;12.43;;;23.40;46.00;;;;;;1884021;75;21057;-86
2023/01/29 05:14:51;;;;;;;26.90;11.80;;;23.40;45.50;;;;;;1889766;75;21183;-87
2023/01/29 05:17:22;;;;;;;32.33;13.25;;;23.40;45.80;;;;;;1887876;75;21164;-84
2023/01/29 05:19:52;;;;;;;25.00;13.20;;;23.40;45.80;;;;;;1881700;75;21132;-86
2023/01/29 05:22:24;;;;;;;21.97;13.08;;;23.40;45.80;;;;;;1894204;75;21230;-86
2023/01/29 05:24:56;;;;;;;30.43;13.05;;;23.40;45.50;;;;;;1887561;74;21233;-87
2023/01/29 05:30:23;;;;;;;24.32;12.23;;;23.60;45.40;;;;;;1884291;75;21133;-85
2023/01/29 05:32:53;;;;;;;21.57;12.28;;;23.70;45.40;;;;;;1891820;75;21152;-86
2023/01/29 05:35:24;;;;;;;23.92;12.47;;;23.70;45.10;;;;;;1896204;74;21564;-86
2023/01/29 05:37:56;;;;;;;22.10;12.43;;;23.80;45.20;;;;;;1904259;75;21046;-86
2023/01/29 05:40:27;;;;;;;21.97;12.33;;;23.80;45.50;;;;;;1885881;74;21105;-84
2023/01/29 05:42:58;;;;;;;22.35;11.93;;;23.90;44.50;;;;;;1897591;75;21200;-85
2023/01/29 05:45:29;;;;;;;25.15;12.82;;;23.90;44.80;;;;;;1901390;74;21134;-85
2023/01/29 05:48:00;;;;;;;25.15;11.83;;;24.00;44.80;;;;;;1906013;74;21635;-84
2023/01/29 05:50:31;;;;;;;24.70;13.08;;;24.10;44.60;;;;;;1868739;76;21546;-85
2023/01/29 05:53:02;;;;;;;22.25;12.25;;;24.10;45.00;;;;;;1850960;76;21557;-85
2023/01/29 05:55:33;;;;;;;23.87;13.18;;;24.10;45.00;;;;;;1908220;74;21199;-84
2023/01/29 05:58:05;;;;;;;24.32;12.73;;;24.20;44.30;;;;;;1868165;76;21098;-88
2023/01/29 06:00:36;;;;;;;26.48;13.13;;;24.30;44.10;;;;;;1855279;76;21128;-86
2023/01/29 06:03:07;;;;;;;22.15;12.82;;;24.30;44.60;;;;;;1899143;74;21127;-87
2023/01/29 06:05:41;;;;;;;27.02;13.10;;;24.30;44.60;;;;;;1905142;73;21221;-85
2023/01/29 06:08:12;;;;;;;25.57;12.90;;;24.40;44.30;;;;;;1903811;74;21752;-86
2023/01/29 06:10:43;;;;;;;25.70;12.35;;;24.40;43.90;;;;;;1909706;74;21139;-86
2023/01/29 06:13:15;;;;;;;29.77;12.68;;;24.40;44.40;;;;;;1904448;74;21234;-86
2023/01/29 06:15:46;;;;;;;22.48;11.90;;;24.40;44.30;;;;;;1910857;74;21080;-86
2023/01/29 06:18:17;;;;;;;22.37;12.63;;;24.40;44.70;;;;;;1918948;74;21068;-87
2023/01/29 06:20:51;;;;;;;25.05;12.05;;;24.50;44.30;;;;;;1922710;74;21135;-86
2023/01/29 06:23:21;;;;;;;25.72;12.85;;;24.60;44.20;;;;;;1907648;74;21137;-85
2023/01/29 06:25:52;;;;;;;22.90;12.63;;;24.60;43.90;;;;;;1901158;74;21596;-86
2023/01/29 06:28:23;;;;;;;23.10;12.80;;;24.60;44.00;;;;;;1875076;76;21134;-86
2023/01/29 06:30:55;;;;;;;20.40;12.30;;;24.60;43.50;;;;;;1855355;76;21147;-87
2023/01/29 06:33:27;;;;;;;24.20;12.47;;;24.60;43.90;;;;;;1869639;76;21108;-85
2023/01/29 06:36:03;;;;;;;25.10;12.85;;;24.50;43.40;;;;;;1841006;77;21173;-86
2023/01/29 06:38:35;;;;;;;24.47;12.55;;;24.50;43.80;;;;;;1887929;76;21178;-87
2023/01/29 06:41:12;;;;;;;27.73;13.05;;;24.50;44.00;;;;;;1867974;76;21242;-87
2023/01/29 06:43:44;;;;;;;20.95;12.35;;;24.50;44.10;;;;;;1861387;76;21249;-88
2023/01/29 06:46:15;;;;;;;26.60;12.05;;;24.60;44.50;;;;;;1903126;74;21084;-87
2023/01/29 06:48:46;;;;;;;24.85;11.78;;;24.60;43.80;;;;;;1915594;73;21138;-88
2023/01/29 06:51:17;;;;;;;27.20;13.70;;;24.60;43.80;;;;;;1908940;74;21080;-90
2023/01/29 06:53:50;;;;;;;22.15;10.93;;;24.60;43.90;;;;;;1907321;74;21111;-84
2023/01/29 06:56:22;;;;;;;21.27;12.13;;;24.60;43.50;;;;;;1911061;74;21253;-88
2023/01/29 06:58:53;;;;;;;19.27;11.60;;;24.60;44.00;;;;;;1927637;74;21177;-86
2023/01/29 07:01:26;;;;;;;19.40;11.55;;;24.60;43.70;;;;;;1912792;74;21254;-89
2023/01/29 07:03:58;;;;;;;19.37;11.53;;;24.60;43.40;;;;;;1910775;74;21228;-89
2023/01/29 07:06:29;;;;;;;23.50;11.15;;;24.60;43.70;;;;;;1910507;74;21116;-89
2023/01/29 07:09:00;;;;;;;20.25;11.50;;;24.60;43.60;;;;;;1919408;74;21072;-87
2023/01/29 07:11:36;;;;;;;29.12;12.20;;;24.70;43.70;;;;;;1906531;74;21096;-88
2023/01/29 07:14:07;;;;;;;21.73;11.33;;;24.70;44.60;;;;;;1910186;74;21076;-88
2023/01/29 07:16:38;;;;;;;27.15;12.10;;;24.80;43.30;;;;;;1901935;74;21096;-87
2023/01/29 07:19:09;;;;;;;18.65;11.60;;;24.80;44.00;;;;;;1909930;74;21201;-88
2023/01/29 07:21:39;;;;;;;21.35;11.28;;;24.80;43.60;;;;;;1903082;74;21128;-90
2023/01/29 07:24:10;;;;;;;20.68;11.83;;;24.80;43.10;;;;;;1907658;74;21072;-88
2023/01/29 07:26:41;;;;;;;22.85;11.85;;;24.80;43.80;;;;;;1907069;74;21714;-88
2023/01/29 07:29:12;;;;;;;28.40;12.75;;;24.80;43.50;;;;;;1912805;74;21158;-89
2023/01/29 07:31:42;;;;;;;22.37;12.23;;;24.80;43.70;;;;;;1909175;74;21077;-87
2023/01/29 07:34:13;;;;;;;21.73;12.40;;;24.80;43.50;;;;;;1914627;74;21063;-88
2023/01/29 07:36:44;;;;;;;20.40;11.60;;;24.70;43.30;;;;;;1906153;74;21210;-87
2023/01/29 07:39:15;;;;;;;22.35;11.78;;;24.70;43.40;;;;;;1839623;77;21177;-87
2023/01/29 07:41:46;;;;;;;27.30;12.10;;;24.70;43.50;;;;;;1856503;76;21178;-87
2023/01/29 07:44:18;;;;;;;23.12;12.05;;;24.70;43.90;;;;;;1855487;76;21217;-88
2023/01/29 07:46:49;;;;;;;21.35;12.35;;;24.70;43.70;;;;;;1890435;74;21159;-88
2023/01/29 07:49:20;;;;;;;28.38;12.60;;;24.70;43.70;;;;;;1888979;75;21259;-87
2023/01/29 07:51:51;;;;;;;23.92;12.78;;;24.70;43.90;;;;;;1829272;78;21189;-89
2023/01/29 07:54:22;;;;;;;20.70;12.45;;;24.70;43.60;;;;;;1883900;75;21197;-86
2023/01/29 07:56:53;;;;;;;23.18;12.13;;;24.60;43.70;;;;;;1887215;75;21606;-86
2023/01/29 07:59:23;;;;;;;22.90;12.60;;;24.60;44.10;;;;;;1883999;75;21155;-88
2023/01/29 08:01:54;;;;;;;26.05;13.93;;;24.60;44.30;;;;;;1887830;75;21079;-90
2023/01/29 08:04:25;;;;;;;26.12;13.15;;;24.60;43.90;;;;;;1886716;75;21116;-87
2023/01/29 08:06:56;;;;;;;22.77;11.90;;;24.60;44.30;;;;;;1884506;75;21146;-85
2023/01/29 08:09:27;;;;;;;22.87;13.58;;;24.60;44.30;;;;;;1885994;75;21077;-87
2023/01/29 08:11:58;;;;;;;26.17;12.90;;;24.60;44.10;;;;;;1886496;75;21640;-88
2023/01/29 08:14:32;;;;;;;25.08;12.07;;;24.50;43.90;;;;;;1881473;75;21206;-88
2023/01/29 08:17:03;;;;;;;21.23;13.10;;;24.50;44.20;;;;;;1885914;75;21140;-89
2023/01/29 08:19:34;;;;;;;22.67;13.28;;;24.50;44.30;;;;;;1888663;75;21492;-87
2023/01/29 08:22:05;;;;;;;28.50;13.00;;;24.50;44.40;;;;;;1891156;75;21208;-85
2023/01/29 08:24:36;;;;;;;26.87;12.95;;;24.50;44.70;;;;;;1889949;75;21221;-87
2023/01/29 08:27:09;;;;;;;28.15;13.68;;;24.50;44.80;;;;;;1884915;75;21238;-89
2023/01/29 08:29:39;;;;;;;20.97;12.43;;;24.50;44.60;;;;;;1883650;75;21243;-85
2023/01/29 08:32:10;;;;;;;23.10;12.25;;;24.60;44.10;;;;;;1885135;75;21073;-88
2023/01/29 08:34:41;;;;;;;25.68;11.90;;;24.50;44.30;;;;;;1889070;75;21121;-90
2023/01/29 08:37:12;;;;;;;20.68;12.30;;;24.50;44.70;;;;;;1880291;75;21179;-90
2023/01/29 08:39:43;;;;;;;22.27;12.88;;;24.50;44.90;;;;;;1881361;75;21171;-86
2023/01/29 08:42:13;;;;;;;21.42;12.10;;;24.50;44.90;;;;;;1880868;75;21211;-86
2023/01/29 08:44:44;;;;;;;23.35;12.13;;;24.50;45.00;;;;;;1884504;75;21204;-88
2023/01/29 08:47:15;;;;;;;26.87;12.15;;;24.40;44.80;;;;;;1887897;75;21169;-87
2023/01/29 08:49:46;;;;;;;24.98;11.60;;;24.40;44.80;;;;;;1888259;75;21247;-89
2023/01/29 08:52:18;;;;;;;23.18;12.00;;;24.40;44.70;;;;;;1885669;75;21117;-87
2023/01/29 08:54:48;;;;;;;22.00;12.07;;;24.40;45.00;;;;;;1885895;75;21161;-87
2023/01/29 08:57:19;;;;;;;23.40;11.60;;;24.40;45.00;;;;;;1884245;75;21166;-86
2023/01/29 08:59:50;;;;;;;18.80;10.80;;;24.30;45.30;;;;;;1886974;75;21576;-87
2023/01/29 09:02:21;;;;;;;22.10;12.15;;;24.40;45.50;;;;;;1883395;75;21888;-87
2023/01/29 09:04:51;;;;;;;23.70;12.23;;;24.40;45.30;;;;;;1885282;75;21138;-89
2023/01/29 09:07:22;;;;;;;22.67;11.20;;;24.40;45.00;;;;;;1886022;75;21198;-88
2023/01/29 09:09:54;;;;;;;21.48;11.55;;;24.40;45.00;;;;;;1887211;75;21184;-89
2023/01/29 09:12:25;;;;;;;22.90;11.43;;;24.40;45.50;;;;;;1887130;75;21595;-85
2023/01/29 09:14:56;;;;;;;22.15;11.33;;;24.30;45.00;;;;;;1882710;75;21188;-87
2023/01/29 09:17:26;;;;;;;24.85;12.28;;;24.30;45.00;;;;;;1888574;75;21224;-87
2023/01/29 09:19:57;;;;;;;21.65;13.50;;;24.30;45.10;;;;;;1888985;75;21171;-87
2023/01/29 09:22:28;;;;;;;21.55;11.90;;;24.30;45.50;;;;;;1888808;75;21237;-89
2023/01/29 09:24:59;;;;;;;23.35;11.33;;;24.30;45.70;;;;;;1891940;75;21361;-87
2023/01/29 09:27:30;;;;;;;27.37;12.88;;;24.30;45.80;;;;;;1857903;77;21154;-86
2023/01/29 09:30:01;;;;;;;19.65;11.30;;;24.20;45.20;;;;;;1888787;75;21176;-83
2023/01/29 09:32:32;;;;;;;22.87;12.30;;;24.20;45.30;;;;;;1889908;75;21263;-85
2023/01/29 09:35:04;;;;;;;18.75;11.65;;;24.20;45.60;;;;;;1841890;78;21130;-88
2023/01/29 09:37:35;;;;;;;27.20;12.37;;;24.20;46.00;;;;;;1889139;75;21160;-87
2023/01/29 09:40:07;;;;;;;22.62;11.97;;;24.10;46.00;;;;;;1895637;75;21158;-86
2023/01/29 09:42:47;;;;;;;29.80;12.65;;;24.10;46.10;;;;;;1891763;75;21194;-85
2023/01/29 09:45:29;;;;;;;28.40;12.82;;;24.10;46.30;;;;;;1886640;75;21160;-87
2023/01/29 09:48:04;;;;;;;21.40;11.00;;;24.00;46.30;;;;;;1908718;74;21623;-87
2023/01/29 09:50:47;;;;;;;27.48;12.20;;;24.00;46.30;;;;;;1865026;76;21143;-87
2023/01/29 09:53:23;;;;;;;26.50;11.93;;;24.00;46.20;;;;;;1856184;76;21198;-87
2023/01/29 09:55:59;;;;;;;20.77;11.73;;;23.90;46.30;;;;;;1900338;74;21123;-86
2023/01/29 09:58:32;;;;;;;25.67;11.87;;;23.90;46.30;;;;;;1890665;74;21662;-89
2023/01/29 10:01:39;;;;;;;22.17;11.80;;;23.80;46.70;;;;;;1906384;74;21146;-85
2023/01/29 10:04:36;;;;;;;23.95;12.98;;;23.80;46.90;;;;;;1900023;74;21615;-87
2023/01/29 10:07:36;;;;;;;26.65;12.13;;;23.80;47.10;;;;;;1909823;73;21039;-91
2023/01/29 10:10:10;;;;;;;22.98;11.95;;;23.70;46.80;;;;;;1910719;74;21849;-90
2023/01/29 10:13:12;;;;;;;21.87;11.78;;;23.70;46.90;;;;;;1906967;74;21086;-85
2023/01/29 10:16:08;;;;;;;24.98;11.88;;;23.70;47.20;;;;;;1907612;74;21151;-87
2023/01/29 10:18:50;;;;;;;23.10;11.97;;;23.60;47.50;;;;;;1914547;74;21131;-85
2023/01/29 10:21:44;;;;;;;27.48;12.55;;;23.60;47.60;;;;;;1907957;74;21107;-87
2023/01/29 10:24:20;;;;;;;21.73;12.03;;;23.50;47.50;;;;;;1904206;74;21879;-90
2023/01/29 10:26:52;;;;;;;27.60;12.93;;;23.50;47.60;;;;;;1879178;74;21152;-86
2023/01/29 10:29:24;;;;;;;19.55;12.13;;;23.40;47.70;;;;;;1911724;74;21115;-86
2023/01/29 10:31:58;;;;;;;26.42;13.13;;;23.40;48.20;;;;;;1924571;74;21614;-88
2023/01/29 10:34:31;;;;;;;22.87;12.75;;;23.40;48.20;;;;;;1903390;74;21221;-88
2023/01/29 10:37:04;;;;;;;24.07;12.82;;;23.40;48.40;;;;;;1901025;74;21766;-88
2023/01/29 10:39:35;;;;;;;26.62;13.78;;;23.30;48.60;;;;;;1906130;74;21620;-88
2023/01/29 10:42:30;;;;;;;22.37;13.20;;;23.30;48.70;;;;;;1911184;74;21213;-89
2023/01/29 10:45:06;;;;;;;27.10;14.17;;;23.30;49.00;;;;;;1903576;74;21209;-89
2023/01/29 10:47:54;;;;;;;21.33;12.93;;;23.20;49.20;;;;;;1905158;74;21192;-88
2023/01/29 10:50:45;;;;;;;22.80;13.03;;;23.20;49.50;;;;;;1887309;75;21085;-89
2023/01/29 10:53:40;;;;;;;21.30;12.63;;;23.20;49.80;;;;;;1881744;75;21187;-87
2023/01/29 10:56:30;;;;;;;22.75;13.05;;;23.20;50.00;;;;;;1883426;75;21104;-87
2023/01/29 10:59:04;;;;;;;21.27;12.88;;;23.10;50.00;;;;;;1883167;75;21070;-89
2023/01/29 11:01:35;;;;;;;20.65;13.58;;;23.10;50.10;;;;;;1886911;75;21183;-89
2023/01/29 11:04:08;;;;;;;30.30;13.85;;;23.10;50.20;;;;;;1900539;75;21113;-88
2023/01/29 11:06:39;;;;;;;23.42;13.40;;;23.10;50.20;;;;;;1896475;75;21148;-85
2023/01/29 11:09:18;;;;;;;20.27;12.60;;;23.00;50.30;;;;;;1885812;75;21163;-86
2023/01/29 11:11:51;;;;;;;23.50;13.50;;;23.00;50.50;;;;;;1887578;75;21144;-87
2023/01/29 11:14:26;;;;;;;27.07;14.05;;;23.00;50.50;;;;;;1887735;75;21125;-86
2023/01/29 11:16:57;;;;;;;27.80;14.78;;;22.90;50.60;;;;;;1880870;75;21206;-86
2023/01/29 11:19:40;;;;;;;26.05;14.38;;;22.90;50.70;;;;;;1884426;75;21144;-84
2023/01/29 11:22:16;;;;;;;30.37;13.83;;;22.90;50.90;;;;;;1874440;75;21120;-87
2023/01/29 11:24:48;;;;;;;23.97;13.70;;;22.90;51.10;;;;;;1879179;75;21184;-86
2023/01/29 11:27:29;;;;;;;23.87;14.33;;;22.80;51.20;;;;;;1886104;74;22223;-87
2023/01/29 11:29:59;;;;;;;24.23;13.05;;;22.80;51.40;;;;;;1883139;75;21174;-87
2023/01/29 11:32:32;;;;;;;25.92;13.83;;;22.80;51.40;;;;;;1888849;75;21061;-87
2023/01/29 11:35:18;;;;;;;30.80;13.88;;;22.80;51.50;;;;;;1857396;77;21104;-86
2023/01/29 11:37:50;;;;;;;22.50;12.70;;;22.70;51.60;;;;;;1887637;74;21307;-87
2023/01/29 11:40:23;;;;;;;24.18;14.35;;;22.70;51.70;;;;;;1892101;75;21223;-87
2023/01/29 11:42:54;;;;;;;27.27;14.73;;;22.70;51.90;;;;;;1877548;75;21066;-87
2023/01/29 11:45:32;;;;;;;24.37;14.28;;;22.70;52.00;;;;;;1896600;75;21066;-86
2023/01/29 11:48:02;;;;;;;27.95;14.20;;;22.60;52.10;;;;;;1897188;74;21155;-87
2023/01/29 11:50:39;;;;;;;28.60;15.03;;;22.60;52.90;;;;;;1888485;75;21065;-86
2023/01/29 11:53:41;;;;;;;30.92;15.95;;;22.60;52.20;;;;;;1886312;75;21663;-86
2023/01/29 11:56:17;;;;;;;25.32;16.97;;;22.60;52.20;;;;;;1800363;78;21225;-88
2023/01/29 11:58:56;;;;;;;32.13;16.93;;;22.50;52.10;;;;;;1898316;74;21053;-84
2023/01/29 12:01:33;;;;;;;30.72;16.80;;;22.50;52.20;;;;;;1885481;75;21234;-86
2023/01/29 12:04:13;;;;;;;30.17;17.45;;;22.50;52.30;;;;;;1888987;75;21245;-87
2023/01/29 12:06:51;;;;;;;35.98;18.12;;;22.40;52.40;;;;;;1883933;75;21156;-88
2023/01/29 12:09:27;;;;;;;38.98;19.60;;;22.40;52.50;;;;;;1884774;75;21089;-86
2023/01/29 12:12:02;;;;;;;34.80;18.92;;;22.40;52.70;;;;;;1891451;75;21049;-87
2023/01/29 12:14:54;;;;;;;36.95;20.32;;;22.40;52.70;;;;;;1891500;75;21108;-87
2023/01/29 12:17:28;;;;;;;38.35;21.33;;;22.30;52.70;;;;;;1890778;75;21615;-86
2023/01/29 12:20:18;;;;;;;45.50;20.82;;;22.30;52.70;;;;;;1894721;75;21145;-87
2023/01/29 12:22:55;;;;;;;40.48;20.23;;;22.30;52.80;;;;;;1817649;77;21147;-88
2023/01/29 12:25:35;;;;;;;35.35;21.60;;;22.30;52.90;;;;;;1886038;75;21183;-87
2023/01/29 12:28:19;;;;;;;39.18;20.48;;;22.20;53.00;;;;;;1897552;75;21124;-88
2023/01/29 12:31:14;;;;;;;39.03;20.45;;;22.20;53.00;;;;;;1880527;75;21650;-87
2023/01/29 12:33:59;;;;;;;38.35;22.22;;;22.20;53.00;;;;;;1877506;75;21139;-88
2023/01/29 12:36:38;;;;;;;42.53;22.10;;;22.20;53.00;;;;;;1888452;75;21206;-87
2023/01/29 12:39:12;;;;;;;40.52;21.93;;;22.10;53.00;;;;;;1886957;75;21155;-87
2023/01/29 12:41:45;;;;;;;38.20;22.40;;;22.10;53.20;;;;;;1896266;75;21100;-84
2023/01/29 12:44:18;;;;;;;39.73;21.60;;;22.10;53.30;;;;;;1898124;75;21112;-88
2023/01/29 12:46:52;;;;;;;39.40;22.67;;;22.10;53.60;;;;;;1900021;74;21121;-88
2023/01/29 12:49:33;;;;;;;37.07;23.33;;;22.00;53.70;;;;;;1898838;74;21454;-86
2023/01/29 12:52:25;;;;;;;43.35;24.95;;;22.00;53.80;;;;;;1892753;74;21151;-84
2023/01/29 12:55:01;;;;;;;38.60;24.37;;;22.00;54.10;;;;;;1903258;75;21117;-85
2023/01/29 12:57:50;;;;;;;40.58;24.43;;;22.00;54.20;;;;;;1884485;74;21108;-82
2023/01/29 13:00:35;;;;;;;44.10;23.35;;;21.90;54.30;;;;;;1896238;75;21069;-83
2023/01/29 13:03:20;;;;;;;41.05;22.42;;;21.90;54.30;;;;;;1891865;75;21174;-86
2023/01/29 13:05:57;;;;;;;47.27;23.02;;;21.90;54.50;;;;;;1887048;75;21120;-88
2023/01/29 13:08:39;;;;;;;47.60;24.32;;;21.90;54.60;;;;;;1889863;75;21163;-87
2023/01/29 13:11:15;;;;;;;41.28;23.73;;;21.80;54.60;;;;;;1881673;75;21089;-88
2023/01/29 13:14:06;;;;;;;39.92;23.27;;;21.80;54.70;;;;;;1885878;75;21690;-87
2023/01/29 13:16:40;;;;;;;41.77;24.90;;;21.70;54.90;;;;;;1894633;74;21109;-85
2023/01/29 13:19:16;;;;;;;47.93;28.60;;;21.70;55.00;;;;;;1899207;74;21664;-86
2023/01/29 13:21:58;;;;;;;58.68;34.13;;;21.70;55.00;;;;;;1876213;75;21038;-85
2023/01/29 13:24:38;;;;;;;53.13;31.48;;;21.70;55.00;;;;;;1877856;75;21120;-88
2023/01/29 13:27:11;;;;;;;45.60;27.25;;;21.60;55.00;;;;;;1900355;74;21159;-86
2023/01/29 13:29:43;;;;;;;40.85;24.95;;;21.60;55.20;;;;;;1883817;74;21125;-87
2023/01/29 13:32:16;;;;;;;36.35;23.98;;;21.60;55.30;;;;;;1883858;74;21179;-87
2023/01/29 13:34:52;;;;;;;46.92;24.92;;;21.60;55.50;;;;;;1894048;75;21141;-85
2023/01/29 13:37:28;;;;;;;42.67;26.37;;;21.50;55.80;;;;;;1900781;75;21128;-88
2023/01/29 13:40:01;;;;;;;43.40;26.37;;;21.50;56.10;;;;;;1894993;75;21226;-87